createdAt,value
2022-09-24T00:01:38.640Z,66.25
2022-09-24T00:04:09.746Z,66.56
2022-09-24T00:06:40.927Z,66.37
2022-09-24T00:09:10.484Z,66.41
2022-09-24T00:11:38.949Z,66.66
2022-09-24T00:14:07.702Z,67.25
2022-09-24T00:16:35.372Z,67.25
2022-09-24T00:19:05.100Z,66.71
2022-09-24T00:21:34.745Z,67.42
2022-09-24T00:24:03.978Z,67.46
2022-09-24T00:26:50.221Z,67.62
2022-09-24T00:29:19.831Z,68.49
2022-09-24T00:31:47.430Z,68.07
2022-09-24T00:34:15.324Z,68.48
2022-09-24T00:36:44.841Z,68.77
2022-09-24T00:39:12.546Z,68.38
2022-09-24T00:41:42.243Z,68.84
2022-09-24T00:44:47.875Z,68.74
2022-09-24T00:47:18.941Z,68.49
2022-09-24T00:49:48.982Z,68.08
2022-09-24T00:52:17.302Z,68.86
2022-09-24T00:54:45.638Z,68.58
2022-09-24T00:57:15.228Z,68.14
2022-09-24T00:59:43.874Z,68.99
2022-09-24T01:02:11.322Z,68.91
2022-09-24T01:04:39.051Z,69.44
2022-09-24T01:07:06.460Z,69.23
2022-09-24T01:09:34.764Z,69.79
2022-09-24T01:12:13.013Z,70.06
2022-09-24T01:14:52.662Z,70.00
2022-09-24T01:17:29.891Z,70.12
2022-09-24T01:20:20.033Z,70.03
2022-09-24T01:23:05.901Z,69.38
2022-09-24T01:25:43.289Z,69.27
2022-09-24T01:28:26.737Z,69.84
2022-09-24T01:31:02.776Z,69.66
2022-09-24T01:33:34.885Z,70.86
2022-09-24T01:36:08.265Z,72.19
2022-09-24T01:38:41.433Z,70.08
2022-09-24T01:41:25.662Z,69.61
2022-09-24T01:43:53.875Z,69.79
2022-09-24T01:46:25.085Z,69.47
2022-09-24T01:48:52.739Z,69.05
2022-09-24T01:51:24.419Z,69.93
2022-09-24T01:53:56.311Z,69.29
2022-09-24T01:56:27.811Z,69.63
2022-09-24T01:59:01.526Z,70.03
2022-09-24T02:01:33.847Z,69.70
2022-09-24T02:04:08.182Z,69.33
2022-09-24T02:06:39.709Z,69.51
2022-09-24T02:09:07.780Z,69.42
2022-09-24T02:11:37.852Z,68.81
2022-09-24T02:14:09.624Z,68.84
2022-09-24T02:16:42.531Z,69.69
2022-09-24T02:19:14.856Z,70.19
2022-09-24T02:21:45.421Z,69.57
2022-09-24T02:24:17.856Z,69.26
2022-09-24T02:26:46.253Z,68.85
2022-09-24T02:29:14.176Z,69.61
2022-09-24T02:31:47.462Z,69.40
2022-09-24T02:34:22.401Z,69.07
2022-09-24T02:36:51.066Z,68.78
2022-09-24T02:39:19.079Z,68.81
2022-09-24T02:41:48.431Z,69.20
2022-09-24T02:44:16.502Z,68.61
2022-09-24T02:46:45.752Z,69.33
2022-09-24T02:49:14.133Z,68.94
2022-09-24T02:51:42.016Z,68.64
2022-09-24T02:54:10.510Z,68.77
2022-09-24T02:56:38.352Z,69.05
2022-09-24T02:59:06.214Z,68.87
2022-09-24T03:01:33.761Z,69.46
2022-09-24T03:04:03.276Z,69.56
2022-09-24T03:06:30.843Z,69.48
2022-09-24T03:08:58.864Z,69.24
2022-09-24T03:11:26.436Z,68.78
2022-09-24T03:13:53.832Z,69.02
2022-09-24T03:16:21.400Z,69.77
2022-09-24T03:18:49.235Z,69.93
2022-09-24T03:21:19.985Z,70.06
2022-09-24T03:23:48.174Z,71.08
2022-09-24T03:26:15.762Z,70.37
2022-09-24T03:28:43.159Z,70.76
2022-09-24T03:31:09.819Z,70.62
2022-09-24T03:33:38.680Z,69.97
2022-09-24T03:36:08.616Z,70.01
2022-09-24T03:38:38.703Z,70.27
2022-09-24T03:41:07.161Z,71.07
2022-09-24T03:43:35.008Z,70.96
2022-09-24T03:46:02.820Z,71.08
2022-09-24T03:48:30.938Z,70.61
2022-09-24T03:50:58.357Z,70.23
2022-09-24T03:53:25.732Z,70.21
2022-09-24T03:55:57.715Z,70.22
2022-09-24T03:58:26.076Z,70.58
2022-09-24T04:00:54.449Z,70.70
2022-09-24T04:03:22.702Z,70.75
2022-09-24T04:05:51.421Z,71.01
2022-09-24T04:08:19.250Z,69.79
2022-09-24T04:10:47.227Z,70.84
2022-09-24T04:13:16.164Z,70.42
2022-09-24T04:15:43.767Z,70.68
2022-09-24T04:18:11.497Z,70.80
2022-09-24T04:20:38.911Z,70.07
2022-09-24T04:23:06.387Z,70.57
2022-09-24T04:25:34.173Z,70.07
2022-09-24T04:28:03.753Z,71.01
2022-09-24T04:30:33.756Z,70.56
2022-09-24T04:33:02.751Z,70.86
2022-09-24T04:35:32.073Z,70.61
2022-09-24T04:38:00.316Z,70.71
2022-09-24T04:40:28.361Z,71.57
2022-09-24T04:42:55.859Z,71.16
2022-09-24T04:45:24.920Z,71.35
2022-09-24T04:47:57.821Z,71.33
2022-09-24T04:50:26.677Z,71.13
2022-09-24T04:52:54.661Z,72.20
2022-09-24T04:55:22.298Z,71.48
2022-09-24T04:57:51.074Z,71.88
2022-09-24T05:00:21.567Z,72.05
2022-09-24T05:02:56.419Z,71.60
2022-09-24T05:05:25.229Z,71.37
2022-09-24T05:07:52.770Z,71.62
2022-09-24T05:10:20.270Z,71.50
2022-09-24T05:12:47.668Z,71.65
2022-09-24T05:15:15.226Z,71.60
2022-09-24T05:17:42.740Z,71.61
2022-09-24T05:20:11.363Z,71.69
2022-09-24T05:22:43.007Z,71.33
2022-09-24T05:25:10.941Z,71.79
2022-09-24T05:27:37.580Z,71.75
2022-09-24T05:30:06.180Z,70.79
2022-09-24T05:32:36.731Z,74.10
2022-09-24T05:35:04.396Z,72.19
2022-09-24T05:37:31.791Z,71.55
2022-09-24T05:40:21.118Z,72.44
2022-09-24T05:42:48.534Z,71.99
2022-09-24T05:45:18.431Z,71.48
2022-09-24T05:47:46.115Z,71.29
2022-09-24T05:50:14.367Z,71.50
2022-09-24T05:52:42.779Z,72.19
2022-09-24T05:55:12.031Z,70.50
2022-09-24T05:57:39.660Z,70.46
2022-09-24T06:00:08.392Z,71.05
2022-09-24T06:02:35.850Z,70.74
2022-09-24T06:05:03.348Z,71.21
2022-09-24T06:07:31.070Z,70.20
2022-09-24T06:09:59.189Z,70.67
2022-09-24T06:12:27.985Z,70.24
2022-09-24T06:14:55.397Z,70.60
2022-09-24T06:17:23.526Z,71.04
2022-09-24T06:19:50.953Z,71.04
2022-09-24T06:22:19.373Z,71.25
2022-09-24T06:24:46.876Z,71.52
2022-09-24T06:27:14.288Z,70.57
2022-09-24T06:29:42.987Z,71.03
2022-09-24T06:32:10.425Z,69.95
2022-09-24T06:34:37.831Z,71.38
2022-09-24T06:37:05.273Z,71.28
2022-09-24T06:39:32.661Z,70.89
2022-09-24T06:42:00.116Z,70.02
2022-09-24T06:44:27.520Z,69.71
2022-09-24T06:46:57.208Z,68.53
2022-09-24T06:49:24.615Z,69.16
2022-09-24T06:51:54.649Z,69.22
2022-09-24T06:54:22.378Z,69.25
2022-09-24T06:56:50.284Z,69.33
2022-09-24T06:59:17.678Z,68.96
2022-09-24T07:01:45.155Z,68.62
2022-09-24T07:04:13.913Z,69.06
2022-09-24T07:06:58.616Z,69.80
2022-09-24T07:09:26.024Z,68.69
2022-09-24T07:11:54.722Z,68.57
2022-09-24T07:14:23.892Z,68.66
2022-09-24T07:16:52.140Z,68.55
2022-09-24T07:19:20.859Z,69.51
2022-09-24T07:21:48.266Z,68.89
2022-09-24T07:24:15.679Z,69.31
2022-09-24T07:26:43.072Z,68.70
2022-09-24T07:29:10.469Z,68.39
2022-09-24T07:31:37.961Z,68.47
2022-09-24T07:34:07.920Z,68.58
2022-09-24T07:36:36.747Z,68.46
2022-09-24T07:39:05.072Z,68.59
2022-09-24T07:41:33.044Z,67.58
2022-09-24T07:44:00.921Z,68.30
2022-09-24T07:46:28.498Z,67.73
2022-09-24T07:48:56.749Z,67.88
2022-09-24T07:51:25.965Z,67.78
2022-09-24T07:53:55.509Z,67.95
2022-09-24T07:56:23.973Z,68.05
2022-09-24T07:58:52.549Z,68.64
2022-09-24T08:01:20.604Z,68.16
2022-09-24T08:03:48.246Z,68.03
2022-09-24T08:06:15.721Z,68.13
2022-09-24T08:08:43.793Z,67.80
2022-09-24T08:11:13.860Z,67.77
2022-09-24T08:13:41.364Z,69.74
2022-09-24T08:16:08.875Z,69.62
2022-09-24T08:18:36.339Z,69.47
2022-09-24T08:21:05.698Z,69.84
2022-09-24T08:23:33.229Z,70.15
2022-09-24T08:26:01.043Z,70.47
2022-09-24T08:28:31.205Z,67.35
2022-09-24T08:31:00.487Z,67.91
2022-09-24T08:33:37.210Z,66.22
2022-09-24T08:36:06.695Z,66.25
2022-09-24T08:38:34.077Z,66.83
2022-09-24T08:41:15.002Z,66.06
2022-09-24T08:43:50.710Z,66.91
2022-09-24T08:46:42.318Z,65.63
2022-09-24T08:49:17.120Z,66.11
2022-09-24T08:51:51.209Z,65.64
2022-09-24T08:54:19.716Z,66.32
2022-09-24T08:56:47.671Z,66.51
2022-09-24T08:59:27.691Z,66.28
2022-09-24T09:02:13.345Z,65.12
2022-09-24T09:04:52.248Z,64.79
2022-09-24T09:07:22.499Z,64.66
2022-09-24T09:09:56.216Z,64.37
2022-09-24T09:12:28.535Z,64.42
2022-09-24T09:15:02.805Z,64.26
2022-09-24T09:17:42.413Z,64.21
2022-09-24T09:20:16.907Z,63.89
2022-09-24T09:22:48.021Z,64.86
2022-09-24T09:25:20.702Z,63.95
2022-09-24T09:27:51.813Z,64.84
2022-09-24T09:30:21.945Z,64.44
2022-09-24T09:33:10.670Z,64.67
2022-09-24T09:35:47.328Z,64.16
2022-09-24T09:38:20.970Z,64.00
2022-09-24T09:40:58.202Z,64.73
2022-09-24T09:43:26.815Z,65.74
2022-09-24T09:46:07.569Z,64.34
2022-09-24T09:48:44.458Z,63.78
2022-09-24T09:51:22.305Z,63.25
2022-09-24T09:53:56.440Z,63.05
2022-09-24T09:56:27.251Z,62.07
2022-09-24T09:59:03.891Z,65.41
2022-09-24T10:01:35.361Z,64.37
2022-09-24T10:04:04.844Z,65.07
2022-09-24T10:06:34.397Z,64.18
2022-09-24T10:09:13.076Z,64.93
2022-09-24T10:11:40.618Z,64.09
2022-09-24T10:14:12.357Z,62.76
2022-09-24T10:16:43.516Z,63.44
2022-09-24T10:19:18.173Z,62.01
2022-09-24T10:21:45.669Z,62.02
2022-09-24T10:24:17.371Z,61.71
2022-09-24T10:26:46.590Z,61.56
2022-09-24T10:29:35.665Z,61.59
2022-09-24T10:32:04.901Z,61.13
2022-09-24T10:34:32.557Z,61.44
2022-09-24T10:37:05.044Z,61.50
2022-09-24T10:39:34.839Z,61.80
2022-09-24T10:42:02.952Z,61.72
2022-09-24T10:44:35.779Z,61.28
2022-09-24T10:47:20.457Z,62.11
2022-09-24T10:50:01.833Z,61.08
2022-09-24T10:52:43.525Z,61.28
2022-09-24T10:55:21.664Z,61.50
2022-09-24T10:57:59.777Z,61.87
2022-09-24T11:00:38.681Z,62.16
2022-09-24T11:03:27.240Z,61.87
2022-09-24T11:06:01.502Z,61.88
2022-09-24T11:08:47.897Z,62.17
2022-09-24T11:11:28.538Z,61.93
2022-09-24T11:14:05.178Z,61.47
2022-09-24T11:16:56.263Z,61.19
2022-09-24T11:19:51.559Z,60.86
2022-09-24T11:22:24.987Z,61.16
2022-09-24T11:25:09.613Z,61.77
2022-09-24T11:27:52.967Z,61.35
2022-09-24T11:30:24.832Z,61.11
2022-09-24T11:33:07.829Z,61.46
2022-09-24T11:35:56.589Z,60.79
2022-09-24T11:38:31.692Z,60.80
2022-09-24T11:41:12.648Z,60.75
2022-09-24T11:43:51.572Z,60.46
2022-09-24T11:46:29.044Z,60.86
2022-09-24T11:49:20.635Z,60.41
2022-09-24T11:51:56.745Z,60.45
2022-09-24T11:54:31.791Z,58.69
2022-09-24T11:57:04.326Z,58.91
2022-09-24T11:59:39.798Z,58.79
2022-09-24T12:02:19.250Z,58.28
2022-09-24T12:04:55.402Z,59.22
2022-09-24T12:07:31.494Z,58.77
2022-09-24T12:10:03.317Z,59.53
2022-09-24T12:12:34.548Z,59.75
2022-09-24T12:15:06.984Z,60.21
2022-09-24T12:17:39.638Z,59.73
2022-09-24T12:20:17.959Z,61.13
2022-09-24T12:22:50.040Z,61.65
2022-09-24T12:25:17.710Z,62.84
2022-09-24T12:27:46.589Z,62.66
2022-09-24T12:30:49.205Z,63.19
2022-09-24T12:33:22.681Z,64.00
2022-09-24T12:36:01.876Z,64.12
2022-09-24T12:38:35.454Z,63.54
2022-09-24T12:41:19.791Z,63.62
2022-09-24T12:43:53.748Z,63.43
2022-09-24T12:46:23.796Z,63.49
2022-09-24T12:48:53.474Z,62.62
2022-09-24T12:51:23.768Z,62.37
2022-09-24T12:54:05.855Z,62.80
2022-09-24T12:56:34.883Z,61.38
2022-09-24T12:59:05.515Z,61.01
2022-09-24T13:01:35.349Z,61.21
2022-09-24T13:04:24.525Z,62.64
2022-09-24T13:06:52.371Z,61.06
2022-09-24T13:09:36.033Z,61.03
2022-09-24T13:12:20.915Z,60.07
2022-09-24T13:14:57.757Z,60.32
2022-09-24T13:17:25.811Z,59.49
2022-09-24T13:19:59.452Z,58.88
2022-09-24T13:22:29.758Z,59.48
2022-09-24T13:25:20.773Z,58.98
2022-09-24T13:27:58.980Z,58.43
2022-09-24T13:30:36.260Z,58.30
2022-09-24T13:33:11.668Z,57.97
2022-09-24T13:35:46.517Z,58.46
2022-09-24T13:38:21.956Z,58.59
2022-09-24T13:40:56.997Z,59.55
2022-09-24T13:43:38.176Z,59.27
2022-09-24T13:46:12.927Z,59.07
2022-09-24T13:48:46.199Z,59.07
2022-09-24T13:51:14.967Z,57.96
2022-09-24T13:53:49.587Z,57.70
2022-09-24T13:56:20.756Z,57.15
2022-09-24T13:58:51.288Z,58.47
2022-09-24T14:01:21.308Z,61.03
2022-09-24T14:03:56.950Z,60.53
2022-09-24T14:06:34.826Z,60.38
2022-09-24T14:09:02.470Z,60.05
2022-09-24T14:11:31.243Z,60.33
2022-09-24T14:13:59.197Z,61.00
2022-09-24T14:16:27.335Z,60.73
2022-09-24T14:19:02.985Z,60.99
2022-09-24T14:21:35.887Z,60.59
2022-09-24T14:24:07.869Z,61.25
2022-09-24T14:26:41.662Z,62.77
2022-09-24T14:29:14.894Z,60.86
2022-09-24T14:31:48.158Z,60.93
2022-09-24T14:34:26.733Z,61.03
2022-09-24T14:36:55.314Z,60.16
2022-09-24T14:39:25.613Z,59.99
2022-09-24T14:41:55.895Z,60.53
2022-09-24T14:44:25.395Z,60.04
2022-09-24T14:46:56.928Z,59.10
2022-09-24T14:49:26.719Z,59.75
2022-09-24T14:51:56.692Z,60.43
2022-09-24T14:54:31.836Z,62.11
2022-09-24T14:57:11.890Z,60.34
2022-09-24T14:59:41.595Z,60.68
2022-09-24T15:02:18.836Z,61.77
2022-09-24T15:04:48.576Z,60.44
2022-09-24T15:07:22.388Z,59.88
2022-09-24T15:09:51.476Z,59.34
2022-09-24T15:12:24.844Z,59.72
2022-09-24T15:14:56.980Z,59.07
2022-09-24T15:17:29.808Z,60.42
2022-09-24T15:19:57.982Z,60.12
2022-09-24T15:22:26.828Z,60.02
2022-09-24T15:25:00.303Z,60.37
2022-09-24T15:27:32.074Z,61.01
2022-09-24T15:30:01.148Z,61.04
2022-09-24T15:32:30.949Z,62.35
2022-09-24T15:34:58.453Z,61.27
2022-09-24T15:37:28.227Z,61.00
2022-09-24T15:39:59.298Z,60.77
2022-09-24T15:42:27.861Z,61.47
2022-09-24T15:44:58.499Z,61.26
2022-09-24T15:47:26.517Z,63.47
2022-09-24T15:49:54.146Z,63.55
2022-09-24T15:52:26.161Z,62.96
2022-09-24T15:54:56.285Z,63.81
2022-09-24T15:57:24.157Z,63.68
2022-09-24T15:59:51.751Z,64.32
2022-09-24T16:02:24.470Z,65.58
2022-09-24T16:04:54.689Z,65.01
2022-09-24T16:07:22.273Z,66.13
2022-09-24T16:09:49.764Z,66.53
2022-09-24T16:12:18.309Z,66.09
2022-09-24T16:14:45.856Z,65.56
2022-09-24T16:17:14.091Z,65.31
2022-09-24T16:19:45.329Z,65.07
2022-09-24T16:22:20.212Z,68.08
2022-09-24T16:24:47.971Z,68.69
2022-09-24T16:27:15.384Z,69.71
2022-09-24T16:29:42.783Z,74.99
2022-09-24T16:32:10.550Z,78.96
2022-09-24T16:34:37.939Z,72.74
2022-09-24T16:37:06.686Z,71.28
2022-09-24T16:39:34.115Z,71.58
2022-09-24T16:42:01.492Z,73.12
2022-09-24T16:44:29.034Z,73.87
2022-09-24T16:46:56.436Z,72.42
2022-09-24T16:49:24.508Z,73.66
2022-09-24T16:51:51.995Z,70.94
2022-09-24T16:54:22.680Z,74.44
2022-09-24T16:56:50.429Z,73.22
2022-09-24T16:59:18.132Z,74.93
2022-09-24T17:01:46.256Z,72.59
2022-09-24T17:04:13.700Z,71.97
2022-09-24T17:06:41.294Z,72.74
2022-09-24T17:09:26.107Z,74.03
2022-09-24T17:11:54.879Z,75.23
2022-09-24T17:14:22.352Z,76.37
2022-09-24T17:16:49.793Z,75.82
2022-09-24T17:19:17.165Z,75.07
2022-09-24T17:21:46.867Z,74.78
2022-09-24T17:24:17.853Z,73.97
2022-09-24T17:26:48.892Z,74.61
2022-09-24T17:32:58.289Z,73.67
2022-09-24T17:35:26.455Z,72.63
2022-09-24T17:43:09.916Z,73.30
2022-09-24T17:45:39.507Z,71.82
2022-09-24T17:48:08.373Z,71.84
2022-09-24T17:50:36.925Z,70.79
2022-09-24T17:53:04.668Z,71.33
2022-09-24T17:55:32.074Z,69.06
2022-09-24T17:57:59.486Z,68.01
2022-09-24T18:00:28.183Z,68.40
2022-09-24T18:02:56.073Z,66.46
2022-09-24T18:05:24.933Z,67.23
2022-09-24T18:07:52.298Z,67.59
2022-09-24T18:10:20.186Z,67.38
2022-09-24T18:12:47.609Z,66.86
2022-09-24T18:15:15.120Z,66.48
2022-09-24T18:17:42.511Z,64.99
2022-09-24T18:20:10.013Z,65.60
2022-09-24T18:22:39.160Z,66.62
2022-09-24T18:25:07.603Z,67.65
2022-09-24T18:27:36.316Z,68.38
2022-09-24T18:30:04.252Z,70.01
2022-09-24T18:32:31.910Z,68.74
2022-09-24T18:34:59.436Z,68.30
2022-09-24T18:37:26.935Z,70.44
2022-09-24T18:39:55.740Z,70.39
2022-09-24T18:42:23.126Z,69.74
2022-09-24T18:44:51.658Z,70.02
2022-09-24T18:47:20.301Z,70.82
2022-09-24T18:49:47.813Z,70.65
2022-09-24T18:52:15.219Z,70.57
2022-09-24T18:54:42.688Z,69.87
2022-09-24T18:57:11.604Z,70.79
2022-09-24T18:59:44.717Z,72.33
2022-09-24T19:02:13.101Z,71.91
2022-09-24T19:04:40.795Z,72.74
2022-09-24T19:07:09.203Z,73.62
2022-09-24T19:09:36.866Z,72.83
2022-09-24T19:12:07.978Z,74.52
2022-09-24T19:14:37.967Z,74.15
2022-09-24T19:17:07.137Z,74.42
2022-09-24T19:19:34.976Z,76.72
2022-09-24T19:22:02.403Z,73.22
2022-09-24T19:24:29.782Z,74.92
2022-09-24T19:26:57.681Z,75.38
2022-09-24T19:29:25.596Z,77.04
2022-09-24T19:31:54.323Z,73.79
2022-09-24T19:34:22.045Z,74.17
2022-09-24T19:36:49.764Z,74.27
2022-09-24T19:39:18.390Z,77.29
2022-09-24T19:41:45.924Z,77.10
2022-09-24T19:44:13.995Z,76.54
2022-09-24T19:46:41.763Z,76.92
2022-09-24T19:49:10.753Z,77.73
2022-09-24T19:51:38.669Z,78.18
2022-09-24T19:54:08.048Z,78.29
2022-09-24T19:56:36.244Z,76.57
2022-09-24T19:59:04.803Z,76.47
2022-09-24T20:01:33.772Z,81.00
2022-09-24T20:04:05.364Z,82.27
2022-09-24T20:06:36.023Z,79.78
2022-09-24T20:09:04.133Z,79.58
2022-09-24T20:11:32.791Z,78.93
2022-09-24T20:14:01.594Z,78.15
2022-09-24T20:16:31.023Z,78.19
2022-09-24T20:18:58.451Z,78.75
2022-09-24T20:21:28.313Z,79.83
2022-09-24T20:23:59.141Z,77.95
2022-09-24T20:26:45.103Z,77.89
2022-09-24T20:29:14.255Z,77.22
2022-09-24T20:31:42.565Z,78.59
2022-09-24T20:34:10.115Z,77.33
2022-09-24T20:36:37.865Z,78.16
2022-09-24T20:39:06.756Z,76.88
2022-09-24T20:41:34.251Z,79.74
2022-09-24T20:44:01.999Z,78.10
2022-09-24T20:46:29.949Z,79.41
2022-09-24T20:48:59.776Z,80.75
2022-09-24T20:51:29.377Z,77.92
2022-09-24T20:53:57.890Z,79.06
2022-09-24T20:56:27.954Z,77.89
2022-09-24T20:58:55.511Z,80.02
2022-09-24T21:01:23.446Z,78.62
2022-09-24T21:03:51.210Z,79.04
2022-09-24T21:06:22.593Z,80.81
2022-09-24T21:08:50.802Z,79.93
2022-09-24T21:11:21.273Z,78.67
2022-09-24T21:13:51.508Z,79.54
2022-09-24T21:16:21.337Z,80.38
2022-09-24T21:18:49.980Z,81.32
2022-09-24T21:21:19.203Z,78.96
2022-09-24T21:23:48.190Z,79.86
2022-09-24T21:26:18.449Z,77.85
2022-09-24T21:28:47.512Z,80.15
2022-09-24T21:31:18.317Z,79.11
2022-09-24T21:33:47.716Z,79.87
2022-09-24T21:36:20.316Z,78.60
2022-09-24T21:38:54.346Z,80.50
2022-09-24T21:41:23.092Z,82.11
2022-09-24T21:43:50.697Z,81.66
2022-09-24T21:46:19.593Z,80.63
2022-09-24T21:48:47.164Z,79.92
2022-09-24T21:51:21.241Z,82.12
2022-09-24T21:53:49.585Z,82.00
2022-09-24T21:56:19.305Z,82.02
2022-09-24T21:58:46.886Z,81.26
2022-09-24T22:01:17.819Z,81.13
2022-09-24T22:03:47.273Z,82.16
2022-09-24T22:06:15.800Z,82.47
2022-09-24T22:08:45.443Z,83.90
2022-09-24T22:11:13.750Z,84.05
2022-09-24T22:13:41.481Z,84.91
2022-09-24T22:16:11.482Z,83.23
2022-09-24T22:18:39.794Z,84.13
2022-09-24T22:21:10.765Z,82.27
2022-09-24T22:23:38.876Z,83.17
2022-09-24T22:26:08.185Z,84.14
2022-09-24T22:28:37.905Z,82.17
2022-09-24T22:31:07.508Z,82.06
2022-09-24T22:33:52.676Z,82.28
2022-09-24T22:36:22.137Z,81.27
2022-09-24T22:38:52.663Z,81.56
2022-09-24T22:41:20.296Z,81.27
2022-09-24T22:43:47.723Z,81.40
2022-09-24T22:46:16.391Z,80.87
2022-09-24T22:48:44.055Z,79.19
2022-09-24T22:51:11.497Z,78.46
2022-09-24T22:53:42.257Z,79.16
2022-09-24T22:56:12.044Z,79.29
2022-09-24T22:58:41.214Z,78.75
2022-09-24T23:01:09.383Z,80.01
2022-09-24T23:03:37.651Z,80.45
2022-09-24T23:06:06.027Z,80.63
2022-09-24T23:08:34.302Z,82.86
2022-09-24T23:11:08.025Z,80.38
2022-09-24T23:13:36.212Z,82.71
2022-09-24T23:16:12.242Z,82.47
2022-09-24T23:18:40.716Z,83.14
2022-09-24T23:21:10.715Z,83.14
2022-09-24T23:23:38.427Z,83.23
2022-09-24T23:26:11.074Z,81.51
2022-09-24T23:28:42.264Z,81.83
2022-09-24T23:31:12.978Z,81.57
2022-09-24T23:33:42.370Z,80.91
2022-09-24T23:36:12.041Z,83.69
2022-09-24T23:38:40.335Z,83.56
2022-09-24T23:41:10.610Z,83.18
2022-09-24T23:43:38.766Z,83.47
2022-09-24T23:46:06.652Z,84.36
2022-09-24T23:48:34.164Z,83.94
2022-09-24T23:51:01.650Z,82.94
2022-09-24T23:53:29.021Z,83.12
2022-09-24T23:55:56.708Z,82.74
2022-09-24T23:58:25.979Z,82.78
